Time;durP1;ratioP1;P1;durP2;ratioP2;P2;SDS_P1;SDS_P2;PMS_P1;PMS_P2;Temp;Humidity;BMP_temperature;BMP_pressure;BME280_temperature;BME280_humidity;BME280_pressure;Samples;Min_cycle;Max_cycle;Signal;HPM_P1;HPM_P2
2021/08/05 00:02:16;;;;;;;5.03;3.60;;;17.40;99.90;;;;;;5014330;28;20071;-73
2021/08/05 00:04:42;;;;;;;5.82;3.90;;;17.40;99.90;;;;;;4996416;28;20038;-73
2021/08/05 00:07:12;;;;;;;6.10;3.88;;;17.40;99.90;;;;;;5013181;28;20026;-72
2021/08/05 00:09:39;;;;;;;7.68;3.70;;;17.40;99.90;;;;;;5013824;28;20026;-73
2021/08/05 00:12:06;;;;;;;7.97;4.30;;;17.40;99.90;;;;;;5014086;28;20507;-72
2021/08/05 00:14:32;;;;;;;8.07;3.70;;;17.40;99.90;;;;;;5014074;28;20035;-72
2021/08/05 00:16:58;;;;;;;7.38;4.35;;;17.40;99.90;;;;;;5013920;28;20494;-73
2021/08/05 00:19:24;;;;;;;5.53;3.47;;;17.50;99.90;;;;;;4995665;28;20084;-73
2021/08/05 00:21:50;;;;;;;7.85;3.90;;;17.50;99.90;;;;;;5012572;28;20026;-73
2021/08/05 00:24:16;;;;;;;6.45;3.88;;;17.50;99.90;;;;;;5013959;28;20450;-73
2021/08/05 00:26:42;;;;;;;7.40;4.13;;;17.40;99.90;;;;;;5012753;28;20030;-73
2021/08/05 00:29:07;;;;;;;7.75;3.58;;;17.40;99.90;;;;;;5012342;28;20124;-73
2021/08/05 00:31:33;;;;;;;6.32;3.67;;;17.40;99.90;;;;;;5028820;28;20041;-73
2021/08/05 00:34:00;;;;;;;5.88;3.78;;;17.40;99.90;;;;;;5013552;28;20034;-73
2021/08/05 00:36:26;;;;;;;7.40;3.67;;;17.30;99.90;;;;;;5013603;28;20030;-73
2021/08/05 00:38:51;;;;;;;6.50;3.92;;;17.20;99.90;;;;;;5012220;28;20419;-72
2021/08/05 00:41:17;;;;;;;8.85;4.10;;;17.20;99.90;;;;;;5013365;28;20029;-73
2021/08/05 00:43:43;;;;;;;6.93;3.80;;;17.20;99.90;;;;;;5013653;28;20041;-73
2021/08/05 00:46:08;;;;;;;11.45;5.05;;;17.20;99.90;;;;;;5011769;28;20125;-73
2021/08/05 00:48:34;;;;;;;6.97;4.13;;;17.20;99.90;;;;;;5013138;28;20112;-73
2021/08/05 00:51:00;;;;;;;5.97;3.95;;;17.10;99.90;;;;;;5013273;28;20437;-73
2021/08/05 00:53:27;;;;;;;7.03;4.45;;;17.10;99.90;;;;;;5013126;28;20034;-73
2021/08/05 00:55:54;;;;;;;6.03;4.22;;;17.00;99.90;;;;;;5011981;28;20041;-73
2021/08/05 00:58:20;;;;;;;8.27;3.92;;;17.00;99.90;;;;;;5012320;28;20034;-73
2021/08/05 01:00:52;;;;;;;7.88;4.40;;;16.90;99.90;;;;;;5011660;28;20042;-73
2021/08/05 01:03:30;;;;;;;6.75;4.20;;;17.00;99.90;;;;;;5012004;28;20487;-72
2021/08/05 01:06:26;;;;;;;12.65;4.75;;;16.90;99.90;;;;;;5011682;28;20034;-72
2021/08/05 01:09:27;;;;;;;8.38;4.25;;;16.90;99.90;;;;;;4996620;28;20117;-72
2021/08/05 01:12:39;;;;;;;5.47;4.25;;;16.80;99.90;;;;;;5013245;28;20030;-73
2021/08/05 01:15:20;;;;;;;8.30;5.43;;;16.80;99.90;;;;;;5012974;28;20391;-73
2021/08/05 01:18:13;;;;;;;6.80;4.13;;;16.80;99.90;;;;;;5011682;28;20555;-73
2021/08/05 01:20:43;;;;;;;9.90;4.45;;;16.70;99.90;;;;;;5010235;28;20788;-73
2021/08/05 01:24:03;;;;;;;7.80;3.95;;;16.70;99.90;;;;;;5011648;28;20545;-73
2021/08/05 01:26:47;;;;;;;8.20;4.93;;;16.70;99.90;;;;;;5011252;28;20050;-73
2021/08/05 01:29:17;;;;;;;7.90;4.50;;;16.60;99.90;;;;;;5012642;28;20034;-73
2021/08/05 01:31:44;;;;;;;6.75;4.43;;;16.60;99.90;;;;;;5011210;28;20026;-73
2021/08/05 01:34:16;;;;;;;9.18;4.57;;;16.60;99.90;;;;;;5011420;28;20068;-73
2021/08/05 01:36:45;;;;;;;8.88;4.68;;;16.50;99.90;;;;;;5012756;28;20488;-73
2021/08/05 01:39:12;;;;;;;7.95;5.07;;;16.50;99.90;;;;;;5011429;28;20133;-73
2021/08/05 01:41:40;;;;;;;7.85;4.57;;;16.40;99.90;;;;;;5011160;28;20557;-73
2021/08/05 01:44:11;;;;;;;6.40;4.28;;;16.50;99.90;;;;;;5011350;28;20040;-73
2021/08/05 01:46:38;;;;;;;13.05;4.88;;;16.40;99.90;;;;;;4994966;28;20060;-73
2021/08/05 01:49:04;;;;;;;9.27;4.93;;;16.30;99.90;;;;;;5011547;28;20092;-73
2021/08/05 01:51:31;;;;;;;8.57;5.05;;;16.30;99.90;;;;;;4994457;28;20651;-72
2021/08/05 01:53:57;;;;;;;8.02;4.25;;;16.30;99.90;;;;;;5011259;28;20108;-72
2021/08/05 01:56:24;;;;;;;6.40;4.65;;;16.30;99.90;;;;;;5012206;28;20030;-73
2021/08/05 01:58:51;;;;;;;8.27;5.20;;;16.20;99.90;;;;;;5011161;28;20033;-72
2021/08/05 02:01:19;;;;;;;8.77;4.65;;;16.10;99.90;;;;;;5012122;28;20041;-72
2021/08/05 02:04:51;;;;;;;12.00;5.05;;;16.10;99.90;;;;;;5012028;28;20034;-72
2021/08/05 02:07:27;;;;;;;7.88;4.93;;;16.10;99.90;;;;;;5012479;28;20045;-72
2021/08/05 02:10:31;;;;;;;7.13;4.43;;;16.00;99.90;;;;;;5012029;28;20113;-72
2021/08/05 02:13:17;;;;;;;6.55;4.43;;;16.00;99.90;;;;;;5000677;28;20491;-73
2021/08/05 02:15:59;;;;;;;6.55;4.28;;;16.00;99.90;;;;;;5010997;28;20129;-73
2021/08/05 02:18:34;;;;;;;8.23;4.35;;;16.00;99.90;;;;;;4995267;28;20395;-73
2021/08/05 02:21:03;;;;;;;7.72;3.95;;;15.90;99.90;;;;;;5012223;28;20125;-73
2021/08/05 02:23:30;;;;;;;7.93;4.28;;;15.80;99.90;;;;;;5012119;28;20038;-73
2021/08/05 02:25:58;;;;;;;8.73;4.68;;;15.80;99.90;;;;;;5010845;28;20487;-73
2021/08/05 02:28:25;;;;;;;7.57;4.68;;;15.80;99.90;;;;;;5010977;28;20034;-73
2021/08/05 02:30:56;;;;;;;8.60;5.55;;;15.80;99.90;;;;;;5010615;28;20438;-73
2021/08/05 02:33:25;;;;;;;8.05;4.30;;;15.70;99.90;;;;;;5010837;28;20066;-73
2021/08/05 02:35:51;;;;;;;7.30;4.25;;;15.70;99.90;;;;;;5010475;28;20479;-73
2021/08/05 02:38:18;;;;;;;6.03;4.03;;;15.80;99.90;;;;;;5011901;28;20066;-73
2021/08/05 02:40:47;;;;;;;6.88;4.13;;;15.90;99.90;;;;;;5011702;28;20021;-73
2021/08/05 02:43:14;;;;;;;5.65;3.80;;;15.90;99.90;;;;;;5014140;28;20045;-73
2021/08/05 02:45:41;;;;;;;6.57;3.67;;;15.90;99.90;;;;;;5014108;28;20524;-73
2021/08/05 02:48:09;;;;;;;8.07;4.22;;;15.90;99.90;;;;;;5015654;28;20080;-72
2021/08/05 02:50:36;;;;;;;6.68;4.32;;;15.80;99.90;;;;;;5015639;28;20088;-73
2021/08/05 02:53:04;;;;;;;7.20;3.83;;;15.80;99.90;;;;;;5015561;28;20118;-72
2021/08/05 02:55:31;;;;;;;6.15;3.97;;;15.80;99.90;;;;;;5014333;28;20433;-73
2021/08/05 02:57:58;;;;;;;7.55;4.78;;;15.80;99.90;;;;;;5015510;28;20045;-73
2021/08/05 03:00:25;;;;;;;6.97;4.13;;;15.80;99.90;;;;;;5014291;28;20065;-73
2021/08/05 03:02:51;;;;;;;7.43;4.13;;;15.80;99.90;;;;;;5014239;28;20466;-73
2021/08/05 03:05:18;;;;;;;7.97;4.25;;;15.70;99.90;;;;;;5015231;28;20030;-73
2021/08/05 03:07:44;;;;;;;6.45;4.28;;;15.70;99.90;;;;;;5014207;28;20034;-73
2021/08/05 03:10:15;;;;;;;8.05;4.15;;;15.70;99.90;;;;;;5015155;28;20030;-72
2021/08/05 03:12:41;;;;;;;9.43;4.45;;;15.60;99.90;;;;;;5015272;28;20029;-73
2021/08/05 03:15:09;;;;;;;6.25;4.65;;;15.50;99.90;;;;;;5014047;28;20442;-72
2021/08/05 03:17:35;;;;;;;9.00;4.65;;;15.40;99.90;;;;;;5013928;28;20041;-72
2021/08/05 03:20:01;;;;;;;8.02;4.70;;;15.50;99.90;;;;;;5015008;28;20033;-72
2021/08/05 03:22:27;;;;;;;7.68;4.63;;;15.50;99.90;;;;;;5014980;28;20033;-73
2021/08/05 03:24:53;;;;;;;9.38;4.43;;;15.50;99.90;;;;;;5013476;28;20123;-71
2021/08/05 03:27:19;;;;;;;9.70;4.57;;;15.50;99.90;;;;;;5013957;28;20061;-71
2021/08/05 03:29:45;;;;;;;6.70;4.68;;;15.50;99.90;;;;;;4997327;28;20050;-71
2021/08/05 03:32:11;;;;;;;7.43;4.53;;;15.50;99.90;;;;;;5014651;28;20049;-72
2021/08/05 03:34:36;;;;;;;9.68;5.32;;;15.50;99.90;;;;;;5013325;28;20084;-72
2021/08/05 03:37:03;;;;;;;7.40;4.68;;;15.50;99.90;;;;;;5014667;28;20038;-72
2021/08/05 03:39:28;;;;;;;7.00;4.20;;;15.50;99.90;;;;;;5013403;28;20042;-72
2021/08/05 03:41:54;;;;;;;10.07;5.20;;;15.40;99.90;;;;;;4997106;28;20044;-72
2021/08/05 03:44:20;;;;;;;6.75;4.80;;;15.30;99.90;;;;;;5014657;28;20033;-71
2021/08/05 03:46:46;;;;;;;8.77;4.70;;;15.20;99.90;;;;;;5014093;28;20614;-72
2021/08/05 03:49:11;;;;;;;8.38;5.32;;;15.10;99.90;;;;;;4991788;28;20041;-68
2021/08/05 03:51:39;;;;;;;7.18;4.65;;;15.10;99.90;;;;;;5018801;28;20030;-68
2021/08/05 03:54:07;;;;;;;6.78;4.20;;;15.00;99.90;;;;;;5031824;28;20040;-69
2021/08/05 03:56:34;;;;;;;11.40;4.95;;;15.00;99.90;;;;;;5033161;28;20049;-68
2021/08/05 03:59:01;;;;;;;10.50;5.10;;;15.00;99.90;;;;;;5034001;28;20045;-68
2021/08/05 04:01:27;;;;;;;7.80;5.55;;;15.00;99.90;;;;;;5035450;28;20022;-70
2021/08/05 04:03:53;;;;;;;10.07;5.40;;;15.00;99.90;;;;;;5033896;28;20029;-68
2021/08/05 04:06:18;;;;;;;10.43;5.40;;;15.00;99.90;;;;;;5033911;28;20061;-68
2021/08/05 04:08:44;;;;;;;8.98;5.47;;;15.10;99.90;;;;;;5033824;28;20478;-68
2021/08/05 04:11:10;;;;;;;9.15;5.32;;;15.10;99.90;;;;;;5032635;28;20478;-67
2021/08/05 04:13:36;;;;;;;8.52;5.43;;;15.10;99.90;;;;;;5032580;28;20033;-68
2021/08/05 04:16:02;;;;;;;14.15;5.80;;;15.20;99.90;;;;;;5033540;28;20026;-69
2021/08/05 04:18:28;;;;;;;9.50;5.22;;;15.20;99.90;;;;;;5001427;28;20045;-70
2021/08/05 04:20:53;;;;;;;8.65;5.50;;;15.20;99.90;;;;;;5032965;28;20033;-69
2021/08/05 04:23:19;;;;;;;10.13;5.78;;;15.20;99.90;;;;;;5033848;28;20041;-69
2021/08/05 04:25:45;;;;;;;9.45;6.38;;;15.20;99.90;;;;;;5032507;28;20037;-69
2021/08/05 04:28:12;;;;;;;9.18;5.32;;;15.30;99.90;;;;;;5033429;28;20045;-71
2021/08/05 04:30:38;;;;;;;11.25;6.10;;;15.30;99.90;;;;;;5033777;28;20112;-72
2021/08/05 04:33:04;;;;;;;8.25;5.63;;;15.30;99.90;;;;;;5032195;28;20509;-72
2021/08/05 04:35:29;;;;;;;8.18;4.78;;;15.30;99.90;;;;;;5033456;28;20711;-74
2021/08/05 04:37:59;;;;;;;9.05;5.70;;;15.40;99.90;;;;;;5033102;28;20030;-70
2021/08/05 04:40:27;;;;;;;10.60;5.00;;;15.40;99.90;;;;;;5033543;28;20075;-72
2021/08/05 04:42:53;;;;;;;9.50;4.85;;;15.50;99.90;;;;;;5033171;28;20030;-72
2021/08/05 04:45:20;;;;;;;7.45;4.82;;;15.50;99.90;;;;;;5033238;28;20037;-71
2021/08/05 04:48:02;;;;;;;11.50;5.38;;;15.50;99.90;;;;;;5032877;28;20069;-71
2021/08/05 04:50:35;;;;;;;10.07;4.85;;;15.50;99.90;;;;;;5033056;28;20038;-69
2021/08/05 04:53:02;;;;;;;11.10;4.97;;;15.60;99.90;;;;;;5028651;28;20053;-70
2021/08/05 04:55:28;;;;;;;8.98;4.97;;;15.60;99.90;;;;;;5012217;28;20109;-70
2021/08/05 04:58:01;;;;;;;7.57;5.32;;;15.60;99.90;;;;;;5011698;28;20045;-69
2021/08/05 05:00:32;;;;;;;9.80;5.43;;;15.70;99.90;;;;;;5011955;28;20096;-69
2021/08/05 05:02:58;;;;;;;8.45;5.13;;;15.80;99.90;;;;;;5013274;28;20569;-68
2021/08/05 05:05:26;;;;;;;13.98;6.05;;;15.70;99.90;;;;;;5011853;28;20095;-69
2021/08/05 05:07:52;;;;;;;8.60;5.35;;;15.80;99.90;;;;;;5011834;28;20038;-69
2021/08/05 05:10:21;;;;;;;8.65;4.95;;;15.80;99.90;;;;;;5015203;28;20076;-68
2021/08/05 05:12:47;;;;;;;10.43;5.05;;;15.80;99.90;;;;;;5031474;28;20071;-68
2021/08/05 05:15:14;;;;;;;7.65;5.10;;;15.80;99.90;;;;;;5032701;28;20072;-68
2021/08/05 05:17:43;;;;;;;8.27;5.32;;;15.80;99.90;;;;;;5031461;28;20650;-68
2021/08/05 05:20:11;;;;;;;8.73;5.35;;;15.80;99.90;;;;;;5017754;28;20536;-68
2021/08/05 05:22:38;;;;;;;11.15;5.57;;;15.90;99.90;;;;;;5025267;28;20029;-69
2021/08/05 05:25:07;;;;;;;10.52;5.30;;;16.00;99.90;;;;;;5032066;28;20029;-66
2021/08/05 05:27:33;;;;;;;8.73;5.82;;;16.00;99.90;;;;;;5032806;28;20034;-64
2021/08/05 05:30:01;;;;;;;8.73;4.68;;;16.00;99.90;;;;;;5032539;28;20382;-64
2021/08/05 05:32:28;;;;;;;12.93;5.18;;;16.00;99.90;;;;;;5032692;28;20041;-64
2021/08/05 05:34:56;;;;;;;9.82;5.40;;;16.00;99.90;;;;;;5032357;28;20107;-64
2021/08/05 05:37:23;;;;;;;8.70;4.70;;;16.00;99.90;;;;;;5032370;28;20061;-63
2021/08/05 05:39:50;;;;;;;8.35;5.00;;;16.00;99.90;;;;;;5032519;28;20112;-64
2021/08/05 05:42:16;;;;;;;9.82;5.80;;;16.00;99.90;;;;;;5031075;28;20429;-63
2021/08/05 05:44:42;;;;;;;7.32;5.25;;;16.00;99.90;;;;;;5032566;28;20083;-64
2021/08/05 05:47:08;;;;;;;10.73;6.15;;;16.00;99.90;;;;;;5032005;28;20099;-63
2021/08/05 05:49:34;;;;;;;9.77;5.68;;;16.00;99.90;;;;;;5030940;28;20057;-64
2021/08/05 05:51:59;;;;;;;9.60;5.05;;;16.10;99.90;;;;;;5031481;28;20044;-64
2021/08/05 05:54:25;;;;;;;8.98;5.60;;;16.20;99.90;;;;;;5032055;28;20116;-64
2021/08/05 05:56:51;;;;;;;8.73;5.60;;;16.30;99.90;;;;;;5031832;28;20042;-63
2021/08/05 05:59:17;;;;;;;11.30;5.55;;;16.30;99.90;;;;;;5032102;28;20025;-64
2021/08/05 06:01:42;;;;;;;9.63;5.43;;;16.40;99.90;;;;;;5032278;28;20520;-64
2021/08/05 06:04:08;;;;;;;8.82;5.32;;;16.40;99.90;;;;;;5034427;28;20367;-64
2021/08/05 06:06:34;;;;;;;8.30;5.25;;;16.40;99.90;;;;;;5030845;28;20029;-63
2021/08/05 06:09:02;;;;;;;17.80;5.65;;;16.50;99.90;;;;;;5015692;28;20026;-63
2021/08/05 06:11:28;;;;;;;10.52;5.32;;;16.50;99.90;;;;;;5012146;28;20029;-64
2021/08/05 06:13:55;;;;;;;10.77;5.80;;;16.60;99.90;;;;;;5012068;28;20041;-63
2021/08/05 06:16:22;;;;;;;9.52;5.60;;;16.60;99.90;;;;;;5012410;28;20030;-64
2021/08/05 06:18:49;;;;;;;8.95;4.72;;;16.60;99.90;;;;;;5015408;28;20193;-63
2021/08/05 06:21:15;;;;;;;10.68;5.65;;;16.60;99.90;;;;;;5016021;28;20030;-64
2021/08/05 06:23:41;;;;;;;10.65;5.13;;;16.80;99.90;;;;;;5031382;28;20041;-64
2021/08/05 06:26:07;;;;;;;11.25;5.18;;;17.10;99.90;;;;;;5016189;28;20164;-64
2021/08/05 06:28:33;;;;;;;8.93;4.72;;;17.10;99.90;;;;;;5016223;28;20105;-64
2021/08/05 06:31:03;;;;;;;8.55;5.35;;;17.10;99.90;;;;;;5015823;28;20041;-64
2021/08/05 06:33:29;;;;;;;7.57;4.70;;;17.30;99.90;;;;;;5016182;28;20160;-63
2021/08/05 06:35:55;;;;;;;8.10;5.03;;;17.30;99.90;;;;;;5016037;28;20156;-63
2021/08/05 06:38:21;;;;;;;9.35;5.47;;;17.30;99.90;;;;;;5015804;28;20120;-64
2021/08/05 06:40:47;;;;;;;9.82;5.40;;;17.30;99.90;;;;;;5016015;28;20387;-64
2021/08/05 06:43:13;;;;;;;9.52;5.93;;;17.30;99.90;;;;;;5015988;28;20037;-64
2021/08/05 06:45:39;;;;;;;8.35;4.97;;;17.30;99.90;;;;;;5015818;28;20025;-64
2021/08/05 06:48:05;;;;;;;9.07;5.10;;;17.70;99.90;;;;;;5015598;28;20497;-64
2021/08/05 06:50:31;;;;;;;7.82;5.43;;;17.90;99.90;;;;;;5015872;28;20030;-64
2021/08/05 06:52:57;;;;;;;9.98;5.25;;;18.10;99.90;;;;;;5015597;28;20041;-63
2021/08/05 06:55:23;;;;;;;8.73;5.07;;;18.20;99.90;;;;;;5015892;28;20038;-63
2021/08/05 06:57:49;;;;;;;9.30;5.05;;;18.30;99.90;;;;;;5015595;28;20034;-64
2021/08/05 07:00:15;;;;;;;8.40;5.05;;;18.30;99.90;;;;;;5015448;28;20052;-64
2021/08/05 07:02:41;;;;;;;8.23;5.22;;;18.40;99.90;;;;;;5015620;28;20026;-64
2021/08/05 07:05:10;;;;;;;10.02;4.40;;;18.20;99.90;;;;;;5030726;28;20471;-63
2021/08/05 07:07:36;;;;;;;11.65;5.28;;;18.10;99.90;;;;;;5015478;28;20113;-63
2021/08/05 07:10:03;;;;;;;8.07;4.80;;;18.30;99.90;;;;;;5015077;28;20034;-63
2021/08/05 07:12:31;;;;;;;8.18;5.03;;;18.40;99.90;;;;;;5014025;28;20045;-64
2021/08/05 07:14:57;;;;;;;13.88;5.28;;;18.40;99.90;;;;;;5015175;28;20033;-63
2021/08/05 07:17:22;;;;;;;10.23;5.43;;;18.50;99.90;;;;;;5015398;28;20034;-63
2021/08/05 07:19:48;;;;;;;8.55;5.13;;;18.30;99.90;;;;;;5015265;28;20049;-63
2021/08/05 07:22:15;;;;;;;8.20;5.28;;;18.30;99.90;;;;;;4997380;28;20475;-63
2021/08/05 07:24:40;;;;;;;8.93;5.10;;;18.20;99.90;;;;;;5015305;28;20040;-63
2021/08/05 07:27:07;;;;;;;9.88;4.93;;;18.20;99.90;;;;;;5015049;28;20026;-63
2021/08/05 07:29:33;;;;;;;14.02;5.88;;;18.30;99.90;;;;;;5014873;28;20041;-64
2021/08/05 07:32:03;;;;;;;13.15;6.85;;;18.60;99.90;;;;;;5015009;28;20034;-64
2021/08/05 07:34:30;;;;;;;12.27;5.93;;;18.60;99.90;;;;;;5015078;28;20069;-63
2021/08/05 07:36:56;;;;;;;11.02;5.82;;;18.50;99.90;;;;;;5013421;28;20069;-63
2021/08/05 07:39:22;;;;;;;8.65;5.38;;;18.70;99.90;;;;;;5014589;28;20061;-64
2021/08/05 07:41:48;;;;;;;7.78;4.63;;;18.80;99.90;;;;;;5014822;28;20033;-63
2021/08/05 07:44:13;;;;;;;11.43;4.80;;;19.00;99.90;;;;;;5014369;28;20437;-63
2021/08/05 07:46:39;;;;;;;8.52;4.22;;;18.90;99.90;;;;;;5014439;28;20100;-63
2021/08/05 07:49:05;;;;;;;7.85;4.57;;;18.90;99.90;;;;;;5014665;28;20507;-63
2021/08/05 07:51:31;;;;;;;7.00;4.47;;;18.90;99.90;;;;;;5014581;28;20084;-62
2021/08/05 07:53:57;;;;;;;8.95;4.93;;;18.90;99.90;;;;;;5014515;28;20386;-62
2021/08/05 07:56:23;;;;;;;8.38;4.10;;;19.10;99.90;;;;;;5014504;28;20095;-62
2021/08/05 07:58:49;;;;;;;7.63;4.10;;;19.30;99.90;;;;;;5019200;28;20120;-63
2021/08/05 08:01:15;;;;;;;7.78;4.72;;;19.40;99.90;;;;;;5052682;28;20041;-63
2021/08/05 08:03:41;;;;;;;8.50;4.20;;;19.60;99.90;;;;;;5054316;28;20037;-63
2021/08/05 08:06:07;;;;;;;9.27;3.92;;;19.80;99.90;;;;;;5052777;28;20508;-63
2021/08/05 08:08:34;;;;;;;7.05;3.90;;;19.90;99.90;;;;;;5053756;28;20112;-63
2021/08/05 08:11:00;;;;;;;8.35;3.70;;;19.70;99.90;;;;;;5035926;28;20037;-63
2021/08/05 08:13:28;;;;;;;7.93;4.25;;;19.80;99.90;;;;;;5053909;28;20029;-63
2021/08/05 08:15:54;;;;;;;9.38;4.18;;;19.90;99.90;;;;;;5053870;28;20537;-63
2021/08/05 08:18:20;;;;;;;9.13;3.67;;;20.10;99.90;;;;;;5053972;28;20124;-63
2021/08/05 08:20:47;;;;;;;7.55;3.38;;;20.10;99.90;;;;;;5052762;28;20171;-63
2021/08/05 08:23:13;;;;;;;9.07;3.65;;;20.00;99.90;;;;;;5053671;28;20328;-63
2021/08/05 08:25:39;;;;;;;5.70;3.35;;;20.00;99.90;;;;;;5053850;28;20390;-63
2021/08/05 08:28:06;;;;;;;6.82;3.78;;;19.90;99.90;;;;;;5053601;28;20048;-63
2021/08/05 08:30:33;;;;;;;4.85;3.03;;;19.80;99.90;;;;;;5053753;28;20028;-63
2021/08/05 08:32:59;;;;;;;8.10;3.42;;;19.90;99.90;;;;;;5053486;28;20064;-63
2021/08/05 08:35:25;;;;;;;5.35;3.08;;;19.80;99.90;;;;;;5053551;28;20048;-63
2021/08/05 08:37:51;;;;;;;8.95;3.88;;;19.90;99.90;;;;;;5053284;28;20130;-63
2021/08/05 08:40:18;;;;;;;10.23;5.03;;;20.00;99.90;;;;;;5052677;28;20036;-63
2021/08/05 08:42:45;;;;;;;6.40;3.25;;;20.20;99.90;;;;;;5053415;28;20029;-63
2021/08/05 08:45:13;;;;;;;4.68;2.95;;;20.50;99.90;;;;;;5052144;28;20040;-63
2021/08/05 08:47:44;;;;;;;6.75;3.35;;;20.70;99.90;;;;;;5053226;28;20485;-63
2021/08/05 08:50:11;;;;;;;4.80;2.80;;;20.80;99.90;;;;;;5053242;28;20406;-62
2021/08/05 08:52:43;;;;;;;4.65;2.97;;;20.90;99.90;;;;;;5052011;28;20136;-63
2021/08/05 08:55:10;;;;;;;4.03;2.38;;;21.00;99.90;;;;;;5052038;28;20025;-62
2021/08/05 08:57:37;;;;;;;4.35;2.67;;;21.10;99.90;;;;;;5051901;28;20495;-63
2021/08/05 09:00:08;;;;;;;6.00;2.80;;;21.20;99.90;;;;;;5051526;28;20025;-62
2021/08/05 09:02:35;;;;;;;4.45;2.75;;;21.30;99.90;;;;;;5052992;28;20040;-63
2021/08/05 09:05:05;;;;;;;4.90;2.25;;;21.20;99.90;;;;;;5051708;28;20029;-63
2021/08/05 09:07:32;;;;;;;5.22;2.70;;;21.30;99.90;;;;;;5052735;28;20024;-63
2021/08/05 09:09:58;;;;;;;4.40;2.67;;;21.50;99.90;;;;;;5052685;28;20029;-63
2021/08/05 09:12:24;;;;;;;7.60;2.53;;;21.40;99.90;;;;;;5052725;28;20642;-62
2021/08/05 09:14:52;;;;;;;5.32;2.63;;;21.50;99.90;;;;;;5052867;28;20025;-63
2021/08/05 09:17:30;;;;;;;9.05;3.35;;;21.60;99.90;;;;;;5052598;28;20043;-63
2021/08/05 09:20:02;;;;;;;4.20;2.50;;;21.30;99.90;;;;;;5052778;28;20029;-63
2021/08/05 09:22:39;;;;;;;3.90;2.67;;;21.70;99.90;;;;;;5052700;28;20037;-64
2021/08/05 09:25:17;;;;;;;5.28;2.33;;;21.60;99.90;;;;;;5052442;28;20138;-63
2021/08/05 09:27:44;;;;;;;7.93;2.33;;;21.70;99.90;;;;;;5052451;28;20116;-64
2021/08/05 09:30:10;;;;;;;3.30;1.92;;;21.90;99.90;;;;;;5052441;28;20188;-63
2021/08/05 09:32:36;;;;;;;5.13;2.38;;;21.90;99.90;;;;;;5051476;28;20158;-64
2021/08/05 09:35:09;;;;;;;2.75;1.73;;;21.80;99.90;;;;;;5051113;28;20166;-64
2021/08/05 09:37:40;;;;;;;4.05;1.92;;;22.00;99.90;;;;;;5034411;28;20033;-64
2021/08/05 09:40:17;;;;;;;3.58;1.85;;;22.30;99.90;;;;;;5052431;28;20032;-64
2021/08/05 09:42:55;;;;;;;3.65;1.85;;;22.70;99.90;;;;;;5052116;28;20040;-65
2021/08/05 09:45:39;;;;;;;3.38;1.95;;;22.80;99.90;;;;;;5052395;28;20040;-65
2021/08/05 09:48:06;;;;;;;3.65;2.15;;;22.30;99.90;;;;;;5052174;28;20049;-64
2021/08/05 09:50:32;;;;;;;4.15;2.00;;;22.50;99.90;;;;;;5052438;28;20095;-64
2021/08/05 09:53:11;;;;;;;4.38;2.30;;;22.50;99.90;;;;;;5052414;28;20474;-64
2021/08/05 09:55:40;;;;;;;5.32;2.38;;;22.00;99.90;;;;;;5052303;28;20135;-65
2021/08/05 09:58:08;;;;;;;2.97;1.70;;;22.20;99.90;;;;;;5052061;28;20047;-64
2021/08/05 10:00:43;;;;;;;4.72;2.00;;;22.20;99.90;;;;;;5048683;28;20390;-64
2021/08/05 10:03:10;;;;;;;5.80;2.25;;;22.40;99.90;;;;;;5052172;28;20036;-63
2021/08/05 10:05:37;;;;;;;5.53;2.42;;;22.40;99.90;;;;;;5052140;28;20075;-63
2021/08/05 10:08:03;;;;;;;3.75;2.20;;;22.50;99.90;;;;;;5034047;28;20037;-64
2021/08/05 10:10:51;;;;;;;4.38;2.20;;;22.30;99.90;;;;;;5052031;28;20086;-64
2021/08/05 10:13:28;;;;;;;4.55;2.67;;;22.20;99.90;;;;;;5052029;28;20025;-64
2021/08/05 10:15:55;;;;;;;5.45;2.22;;;22.30;99.90;;;;;;5052043;28;20033;-63
2021/08/05 10:18:21;;;;;;;2.97;1.45;;;22.20;99.90;;;;;;5051790;28;20116;-64
2021/08/05 10:20:48;;;;;;;2.42;1.60;;;22.20;99.90;;;;;;5050766;28;20167;-64
2021/08/05 10:23:14;;;;;;;3.90;1.83;;;22.30;99.90;;;;;;5050532;28;20166;-64
2021/08/05 10:25:42;;;;;;;4.40;1.85;;;22.30;99.90;;;;;;5051668;28;20616;-63
2021/08/05 10:28:08;;;;;;;5.30;2.00;;;22.50;99.90;;;;;;5050617;28;20037;-64
2021/08/05 10:30:35;;;;;;;3.38;2.00;;;22.70;99.90;;;;;;5051949;28;20040;-64
2021/08/05 10:33:01;;;;;;;8.30;2.55;;;22.70;99.90;;;;;;5034051;28;20553;-64
2021/08/05 10:35:27;;;;;;;4.40;2.35;;;22.80;99.90;;;;;;5051810;28;20083;-64
2021/08/05 10:37:53;;;;;;;3.72;2.33;;;22.80;99.90;;;;;;5051690;28;20033;-64
2021/08/05 10:40:19;;;;;;;6.05;2.10;;;22.90;99.90;;;;;;5051341;28;20029;-64
2021/08/05 10:42:47;;;;;;;4.50;2.08;;;23.30;99.90;;;;;;5051843;28;20064;-64
2021/08/05 10:45:16;;;;;;;2.92;1.80;;;23.70;99.90;;;;;;5051651;28;20076;-64
2021/08/05 10:47:46;;;;;;;3.55;1.95;;;23.60;99.90;;;;;;5051440;28;20070;-64
2021/08/05 10:50:19;;;;;;;3.65;2.03;;;23.40;99.90;;;;;;5051633;28;20448;-64
2021/08/05 10:52:48;;;;;;;4.90;1.90;;;23.50;99.90;;;;;;5050477;28;20033;-64
2021/08/05 10:55:36;;;;;;;5.43;3.17;;;23.70;99.90;;;;;;5051518;28;20112;-64
2021/08/05 10:58:29;;;;;;;3.00;1.58;;;23.80;99.90;;;;;;5051592;28;20025;-64
2021/08/05 11:01:02;;;;;;;2.47;1.60;;;23.90;99.90;;;;;;5050248;28;20383;-64
2021/08/05 11:03:45;;;;;;;3.08;1.30;;;24.20;99.90;;;;;;5052240;28;20094;-64
2021/08/05 11:06:23;;;;;;;2.38;1.50;;;24.50;99.90;;;;;;5055257;28;20124;-64
2021/08/05 11:08:49;;;;;;;5.63;1.58;;;24.40;99.30;;;;;;5054889;28;20528;-64
2021/08/05 11:11:21;;;;;;;2.67;1.30;;;24.40;99.90;;;;;;5055059;28;20033;-64
2021/08/05 11:14:06;;;;;;;3.92;1.35;;;24.20;99.30;;;;;;5054881;28;20036;-64
2021/08/05 11:17:01;;;;;;;3.78;1.60;;;23.90;99.40;;;;;;5043582;28;20240;-64
2021/08/05 11:19:38;;;;;;;4.50;1.50;;;24.00;99.80;;;;;;5052292;28;20563;-65
2021/08/05 11:22:29;;;;;;;2.20;1.35;;;24.50;99.90;;;;;;5055044;28;20033;-65
2021/08/05 11:24:56;;;;;;;4.75;1.95;;;24.60;98.30;;;;;;5054530;28;20481;-64
2021/08/05 11:27:23;;;;;;;2.28;1.23;;;24.50;98.20;;;;;;5054720;28;20086;-64
2021/08/05 11:29:49;;;;;;;3.13;1.38;;;24.30;98.50;;;;;;5054860;28;20112;-65
2021/08/05 11:32:21;;;;;;;2.03;1.10;;;24.10;99.20;;;;;;5054750;28;20378;-64
2021/08/05 11:35:02;;;;;;;2.33;1.33;;;24.20;99.20;;;;;;5054814;28;20033;-64
2021/08/05 11:37:28;;;;;;;;;;;24.20;99.30;;;;;;5053768;28;20033;-65
2021/08/05 11:39:57;;;;;;;2.30;1.30;;;24.50;98.40;;;;;;5054763;28;20089;-65
2021/08/05 11:42:34;;;;;;;2.60;1.10;;;24.60;98.60;;;;;;5053350;28;20029;-64
2021/08/05 11:45:01;;;;;;;1.88;1.08;;;24.60;99.30;;;;;;5054316;28;20063;-65
2021/08/05 11:47:37;;;;;;;2.15;1.10;;;24.80;99.00;;;;;;5054059;28;20049;-65
2021/08/05 11:50:03;;;;;;;2.25;1.40;;;24.80;98.10;;;;;;5054578;28;20386;-64
2021/08/05 11:52:29;;;;;;;2.72;1.48;;;24.70;98.70;;;;;;5054312;28;20017;-64
2021/08/05 11:55:17;;;;;;;7.07;3.95;;;25.00;98.60;;;;;;5054060;28;20044;-63
2021/08/05 11:57:44;;;;;;;4.63;2.45;;;25.30;99.10;;;;;;5054281;28;20033;-64
2021/08/05 12:00:27;;;;;;;3.58;1.60;;;25.30;98.40;;;;;;5054041;28;20035;-63
2021/08/05 12:03:11;;;;;;;2.95;1.15;;;25.70;98.30;;;;;;5054333;28;20071;-64
2021/08/05 12:05:43;;;;;;;3.28;1.38;;;25.40;97.80;;;;;;5033116;28;20116;-64
2021/08/05 12:08:10;;;;;;;2.28;1.20;;;25.20;97.00;;;;;;5036233;28;20149;-64
2021/08/05 12:10:41;;;;;;;1.67;0.95;;;24.90;97.50;;;;;;5052711;28;20107;-64
2021/08/05 12:13:18;;;;;;;1.70;1.00;;;25.30;96.70;;;;;;5053664;28;20047;-63
2021/08/05 12:15:53;;;;;;;2.20;1.23;;;25.20;96.40;;;;;;5052656;28;20035;-63
2021/08/05 12:18:21;;;;;;;3.50;1.45;;;24.90;98.20;;;;;;5053747;28;20040;-65
2021/08/05 12:20:47;;;;;;;5.90;1.25;;;24.90;98.20;;;;;;5053854;28;20029;-65
2021/08/05 12:23:20;;;;;;;2.67;1.35;;;25.00;98.50;;;;;;5053424;28;20116;-64
2021/08/05 12:26:03;;;;;;;2.92;1.50;;;24.40;99.30;;;;;;5053628;28;20366;-63
2021/08/05 12:28:36;;;;;;;2.70;1.40;;;24.90;99.00;;;;;;5053583;28;20039;-64
2021/08/05 12:31:06;;;;;;;5.70;1.80;;;25.10;98.50;;;;;;5052347;28;20069;-63
2021/08/05 12:33:40;;;;;;;2.85;1.60;;;25.00;98.80;;;;;;5053154;28;20033;-64
2021/08/05 12:36:13;;;;;;;4.13;1.40;;;24.70;99.10;;;;;;5051775;28;20413;-64
2021/08/05 12:38:59;;;;;;;3.28;1.83;;;24.80;99.80;;;;;;5053389;28;20056;-64
2021/08/05 12:41:50;;;;;;;2.33;1.30;;;24.80;98.40;;;;;;5053341;28;20029;-64
2021/08/05 12:44:25;;;;;;;2.92;1.50;;;24.80;98.40;;;;;;5053014;28;20482;-64
2021/08/05 12:46:55;;;;;;;3.40;1.40;;;25.00;98.40;;;;;;5051980;28;20056;-64
2021/08/05 12:49:37;;;;;;;2.67;1.60;;;25.00;98.70;;;;;;5051892;28;20485;-64
2021/08/05 12:52:06;;;;;;;4.20;1.75;;;24.70;98.80;;;;;;5053023;28;20082;-64
2021/08/05 12:54:35;;;;;;;2.55;1.02;;;24.70;98.90;;;;;;5051782;28;20126;-64
2021/08/05 12:57:14;;;;;;;2.40;1.40;;;24.50;98.10;;;;;;5053128;28;20040;-63
2021/08/05 12:59:45;;;;;;;4.15;1.77;;;24.20;98.60;;;;;;5052886;28;20112;-64